Flight Track Log - Related Links

Times and Time Zones

All times are in EDT time to prevent confusion due to time zone crossing. See the N213KP flight status page for this flight to view local times or setup timezone preferences in your user account.

Time Position Orientation Groundspeed Altitude Reporting Facility
EDT Latitude Longitude Course Direction KTS MPH feet Rate Location/Type
Tue 10:10:49 AM 33.2500 -111.9500 292° West 146 168 2,400  Level Phoenix TRACON
Tue 10:11:55 AM 33.2667 -112.0000 292° West 158 182 3,300 762 Climbing Phoenix TRACON
Tue 10:12:55 AM 33.3000 -112.0333 320° Northwest 163 188 4,000 950 Climbing Phoenix TRACON
Tue 10:13:55 AM 33.3500 -112.0500 344° North 170 196 5,200 714 Climbing Phoenix TRACON
Tue 10:15:01 AM 33.4000 -112.0333 16° North 190 219 5,500 236 Climbing Phoenix TRACON
Tue 10:16:02 AM 33.4500 -112.0167 16° North 217 250 5,700 582 Climbing Phoenix TRACON
Tue 10:18:17 AM 33.5769 -111.9772 15° North 200 230 7,400 822 Climbing Albuquerque Center
Tue 10:19:19 AM 33.6117 -112.0256 311° West 194 223 8,400 1,065 Climbing Albuquerque Center
Tue 10:20:21 AM 33.6400 -112.0794 302° West 192 221 9,600 1,065 Climbing Albuquerque Center
Tue 10:21:23 AM 33.6822 -112.1211 321° Northwest 199 229 10,600 1,073 Climbing Albuquerque Center
Tue 10:22:24 AM 33.7333 -112.1519 333° Northwest 204 235 11,800 1,024 Climbing Albuquerque Center
Tue 10:23:26 AM 33.7817 -112.1819 333° Northwest 196 226 12,700 919 Climbing Albuquerque Center
Tue 10:24:28 AM 33.8419 -112.2186 333° Northwest 201 231 13,700 823 Climbing Albuquerque Center
Tue 10:25:30 AM 33.8922 -112.2500 333° Northwest 202 232 14,400 829 Climbing Albuquerque Center
Tue 10:26:31 AM 33.9425 -112.2806 333° Northwest 203 234 15,400 976 Climbing Albuquerque Center
Tue 10:27:33 AM 33.9931 -112.3122 333° Northwest 204 235 16,400 871 Climbing Albuquerque Center
Tue 10:28:35 AM 34.0447 -112.3450 332° Northwest 208 239 17,200 871 Climbing Albuquerque Center
Tue 10:29:37 AM 34.0967 -112.3761 334° Northwest 209 241 18,200 871 Climbing Albuquerque Center
Tue 10:30:39 AM 34.1494 -112.4097 332° Northwest 213 245 19,000 780 Climbing Albuquerque Center
Tue 10:31:40 AM 34.2022 -112.4414 334° Northwest 211 243 19,800 780 Climbing Albuquerque Center
Tue 10:32:42 AM 34.2633 -112.4878 328° Northwest 214 246 20,600 726 Climbing Albuquerque Center
Tue 10:33:44 AM 34.2925 -112.5456 301° West 204 235 21,300 629 Climbing Albuquerque Center
Tue 10:34:46 AM 34.3228 -112.6044 302° West 205 236 21,900 581 Climbing Albuquerque Center
Tue 10:35:48 AM 34.3539 -112.6631 303° West 207 238 22,500 532 Climbing Albuquerque Center
Tue 10:36:50 AM 34.3842 -112.7214 302° West 206 237 23,000 488 Climbing Albuquerque Center
Tue 10:37:51 AM 34.4158 -112.7811 303° West 210 242 23,500 537 Climbing Albuquerque Center
Tue 10:38:53 AM 34.4539 -112.8536 302° West 212 244 24,100 532 Climbing Albuquerque Center
Tue 10:39:55 AM 34.4822 -112.9072 303° West 212 244 24,600 532 Climbing Albuquerque Center
Tue 10:40:57 AM 34.5139 -112.9669 303° West 212 244 25,200 629 Climbing Albuquerque Center
Tue 10:41:59 AM 34.5511 -113.0378 303° West 209 241 25,900 581 Climbing Albuquerque Center
Tue 10:43:01 AM 34.5811 -113.0967 302° West 207 238 26,400 484 Climbing Albuquerque Center
Tue 10:44:03 AM 34.6122 -113.1547 303° West 207 238 26,900 585 Climbing Albuquerque Center
Tue 10:45:04 AM 34.6403 -113.2108 301° West 198 228 27,600 537 Climbing Albuquerque Center
Tue 10:46:06 AM 34.6692 -113.2669 302° West 196 226 28,000 194 Climbing Albuquerque Center
Tue 10:47:08 AM 34.6992 -113.3250 302° West 201 231 28,000  Level Albuquerque Center
Tue 10:48:10 AM 34.7372 -113.3969 303° West 209 241 28,000  Level Albuquerque Center
Tue 10:49:12 AM 34.7692 -113.4592 302° West 215 247 28,000  Level Albuquerque Center
Tue 10:50:14 AM 34.8006 -113.5214 302° West 216 249 28,000  Level Albuquerque Center
Tue 10:51:15 AM 34.8322 -113.5828 302° West 216 249 28,000  Level Albuquerque Center
Tue 10:52:17 AM 34.8644 -113.6456 302° West 218 251 28,000  Level Albuquerque Center
Tue 10:53:19 AM 34.8964 -113.7081 302° West 219 252 28,000  Level Albuquerque Center
Tue 10:54:21 AM 34.9350 -113.7833 302° West 219 252 28,000  Level Albuquerque Center
Tue 10:54:51 AM 34.9419 -113.7956 305° West 219 252 28,000  Level Los Angeles Center
Tue 10:55:53 AM 34.9800 -113.8692 302° West 215 247 28,000  Level Los Angeles Center
Tue 10:56:54 AM 35.0106 -113.9317 301° West 215 247 28,000  Level Los Angeles Center
Tue 10:57:56 AM 35.0467 -114.0028 302° West 216 249 28,000  Level Los Angeles Center
Tue 10:59:10 AM 35.0789 -114.0650 302° West 217 250 28,000  Level Los Angeles Center
Tue 11:00:12 AM 35.1175 -114.1400 302° West 217 250 28,000  Level Los Angeles Center
Tue 11:01:14 AM 35.1483 -114.2042 300° West 219 252 28,000  Level Los Angeles Center
Tue 11:02:16 AM 35.1872 -114.2789 303° West 217 250 28,000  Level Los Angeles Center
Tue 11:03:17 AM 35.2183 -114.3408 302° West 214 246 28,000  Level Los Angeles Center
Tue 11:04:19 AM 35.2494 -114.4039 301° West 214 246 28,000  Level Los Angeles Center
Tue 11:05:21 AM 35.2808 -114.4661 302° West 215 247 28,000  Level Los Angeles Center
Tue 11:06:23 AM 35.3117 -114.5278 302° West 212 244 28,000  Level Los Angeles Center
Tue 11:07:25 AM 35.3422 -114.5900 301° West 211 243 28,000  Level Los Angeles Center
Tue 11:08:27 AM 35.3731 -114.6492 303° West 209 241 28,000  Level Los Angeles Center
Tue 11:09:28 AM 35.4106 -114.7217 302° West 209 241 28,000  Level Los Angeles Center
Tue 11:10:31 AM 35.4408 -114.7831 301° West 209 241 28,000  Level Los Angeles Center
Tue 11:11:32 AM 35.4772 -114.8414 307° West 213 245 28,000  Level Los Angeles Center
Tue 11:12:34 AM 35.5214 -114.8953 315° West 221 254 28,000  Level Los Angeles Center
Tue 11:13:36 AM 35.5650 -114.9494 315° West 222 255 28,000  Level Los Angeles Center
Tue 11:14:38 AM 35.6069 -115.0033 314° West 220 253 28,000  Level Los Angeles Center
Tue 11:15:40 AM 35.6497 -115.0575 314° West 220 253 28,000  Level Los Angeles Center
Tue 11:16:42 AM 35.7006 -115.1239 313° West 220 253 28,000  Level Los Angeles Center
Tue 11:17:44 AM 35.7422 -115.1767 314° West 214 246 28,000  Level Los Angeles Center
Tue 11:18:46 AM 35.7825 -115.2336 311° West 218 251 28,000  Level Los Angeles Center
Tue 11:19:48 AM 35.8231 -115.2911 311° West 221 254 28,000  Level Los Angeles Center
Tue 11:20:50 AM 35.8622 -115.3489 310° West 220 253 28,000  Level Los Angeles Center
Tue 11:21:52 AM 35.9028 -115.4089 310° West 224 258 28,000  Level Los Angeles Center
Tue 11:22:54 AM 35.9442 -115.4681 311° West 226 260 28,000  Level Los Angeles Center
Tue 11:23:55 AM 35.9928 -115.5403 310° West 225 259 28,000  Level Los Angeles Center
Tue 11:24:57 AM 36.0339 -115.5997 311° West 225 259 28,000  Level Los Angeles Center
Tue 11:25:59 AM 36.0739 -115.6586 310° West 223 257 28,000  Level Los Angeles Center
Tue 11:27:01 AM 36.1142 -115.7181 310° West 223 257 28,000  Level Los Angeles Center
Tue 11:28:03 AM 36.1539 -115.7772 310° West 222 255 28,000  Level Los Angeles Center
Tue 11:29:05 AM 36.1950 -115.8333 312° West 220 253 28,000  Level Los Angeles Center
Tue 11:30:07 AM 36.2383 -115.8883 314° West 221 254 28,000  Level Los Angeles Center
Tue 11:31:08 AM 36.2722 -115.9311 315° West 220 253 28,000  Level Los Angeles Center
Tue 11:32:10 AM 36.3228 -115.9975 313° West 220 253 28,000  Level Los Angeles Center
Tue 11:33:12 AM 36.3750 -116.0647 314° West 224 258 28,000  Level Los Angeles Center
Tue 11:34:14 AM 36.4183 -116.1214 314° West 227 261 28,000  Level Los Angeles Center
Tue 11:35:28 AM 36.4625 -116.1794 313° West 229 264 28,000  Level Los Angeles Center
Tue 11:36:31 AM 36.5183 -116.2511 314° West 232 267 28,000  Level Los Angeles Center
Tue 11:37:33 AM 36.5603 -116.3056 314° West 229 264 28,000  Level Los Angeles Center
Tue 11:38:35 AM 36.6047 -116.3650 313° West 231 266 28,000  Level Los Angeles Center
Tue 11:39:37 AM 36.6586 -116.4336 314° West 232 267 28,000  Level Los Angeles Center
Tue 11:40:39 AM 36.7039 -116.4936 313° West 235 270 28,000  Level Los Angeles Center
Tue 11:41:41 AM 36.7492 -116.5550 313° West 239 275 28,000  Level Los Angeles Center
Tue 11:42:43 AM 36.7942 -116.6153 313° West 238 274 28,000  Level Los Angeles Center
Tue 11:43:46 AM 36.8403 -116.6753 314° West 238 274 28,000  Level Los Angeles Center
Tue 11:45:50 AM 36.9408 -116.8078 314° West 240 276 28,000  Level Los Angeles Center
Tue 11:46:52 AM 36.9858 -116.8689 313° West 239 275 28,000  Level Los Angeles Center
Tue 11:47:54 AM 37.0317 -116.9294 313° West 239 275 28,000  Level Los Angeles Center
Tue 11:48:56 AM 37.0767 -116.9897 313° West 238 274 28,000  Level Los Angeles Center
Tue 11:49:58 AM 37.1222 -117.0514 313° West 239 275 28,000  Level Los Angeles Center
Tue 11:51:00 AM 37.1678 -117.1119 313° West 240 276 28,000  Level Los Angeles Center
Tue 11:52:02 AM 37.2222 -117.1864 313° West 240 276 28,000  Level Los Angeles Center
Tue 11:53:05 AM 37.2686 -117.2481 313° West 241 277 28,000  Level Los Angeles Center
Tue 11:54:07 AM 37.3142 -117.3094 313° West 241 277 28,000  Level Los Angeles Center
Tue 11:55:09 AM 37.3583 -117.3700 313° West 237 273 28,000  Level Los Angeles Center
Tue 11:56:11 AM 37.4033 -117.4308 313° West 237 273 28,000  Level Los Angeles Center
Tue 11:57:04 AM 37.4483 -117.4919 313° West 240 276 28,000  Level Oakland Center
Tue 11:59:07 AM 37.5403 -117.6172 313° West 243 280 28,000  Level Oakland Center
Tue 12:00:08 PM 37.5886 -117.6814 314° West 248 285 28,000  Level Oakland Center
Tue 12:01:09 PM 37.6350 -117.7456 312° West 247 284 28,000  Level Oakland Center
Tue 12:02:11 PM 37.6811 -117.8094 312° West 245 282 28,000  Level Oakland Center
Tue 12:03:12 PM 37.7272 -117.8714 313° West 242 278 28,000  Level Oakland Center
Tue 12:04:13 PM 37.7725 -117.9350 312° West 242 278 28,000  Level Oakland Center
Tue 12:05:15 PM 37.8183 -117.9981 313° West 243 280 28,000  Level Oakland Center
Tue 12:06:16 PM 37.8639 -118.0622 312° West 242 278 28,000  Level Oakland Center
Tue 12:07:18 PM 37.9100 -118.1256 313° West 244 281 28,000  Level Oakland Center
Tue 12:08:20 PM 37.9664 -118.2028 313° West 248 285 28,000  Level Oakland Center
Tue 12:09:21 PM 38.0131 -118.2681 312° West 248 285 28,000  Level Oakland Center
Tue 12:10:22 PM 38.0589 -118.3311 313° West 245 282 28,000  Level Oakland Center
Tue 12:11:23 PM 38.1061 -118.3983 312° West 250 288 28,000  Level Oakland Center
Tue 12:12:25 PM 38.1547 -118.4633 314° West 254 292 28,000  Level Oakland Center
Tue 12:13:26 PM 38.2022 -118.5314 312° West 257 296 28,000  Level Oakland Center
Tue 12:14:28 PM 38.2483 -118.5983 311° West 254 292 28,000 -244 Level Oakland Center
Tue 12:15:29 PM 38.2964 -118.6644 313° West 254 292 27,500 -738 Descending Oakland Center
Tue 12:16:30 PM 38.3431 -118.7294 312° West 250 288 26,500 -976 Descending Oakland Center
Tue 12:17:32 PM 38.3897 -118.7958 312° West 250 288 25,500 -1,073 Descending Oakland Center
Tue 12:18:33 PM 38.4450 -118.8753 312° West 249 287 24,300 -1,082 Descending Oakland Center
Tue 12:19:34 PM 38.4933 -118.9428 312° West 255 293 23,300 -976 Descending Oakland Center
Tue 12:20:36 PM 38.5389 -119.0083 312° West 250 288 22,300 -1,024 Descending Oakland Center
Tue 12:21:37 PM 38.5839 -119.0736 311° West 247 284 21,200 -1,033 Descending Oakland Center
Tue 12:22:38 PM 38.6289 -119.1356 313° West 241 277 20,200 -976 Descending Oakland Center
Tue 12:23:40 PM 38.6731 -119.1992 312° West 239 275 19,200 -976 Descending Oakland Center
Tue 12:24:41 PM 38.7164 -119.2622 311° West 237 273 18,200 -976 Descending Oakland Center
Tue 12:25:43 PM 38.7600 -119.3244 312° West 235 270 17,200 -976 Descending Oakland Center
Tue 12:26:44 PM 38.8031 -119.3861 312° West 232 267 16,200 -984 Descending Oakland Center
Tue 12:27:45 PM 38.8453 -119.4469 312° West 230 265 15,200 -1,073 Descending Oakland Center
Tue 12:28:47 PM 38.8958 -119.5200 312° West 229 264 14,000 -585 Descending Oakland Center
Tue 12:29:48 PM 38.9383 -119.5814 312° West 231 266 14,000  Level Oakland Center
Tue 12:30:49 PM 38.9792 -119.6397 312° West 221 254 14,000 -146 Level Oakland Center
Tue 12:31:51 PM 39.0225 -119.7031 311° West 229 264 13,700 -634 Descending Oakland Center
Tue 12:32:52 PM 39.0936 -119.7303 343° North 274 315 12,700 -878 Descending Oakland Center
Tue 12:33:54 PM 39.1650 -119.7378 355° North 267 307 11,900 -683 Descending Oakland Center
Tue 12:34:55 PM 39.1869 -119.8042 293° West 237 273 11,300 -590 Descending Oakland Center

Login

Don't have an account? Register now (free) for customized features, flight alerts, and more!